sensor_id;sensor_type;location;lat;lon;timestamp;temperature;humidity
11840;DHT22;5979;50.800;4.904;2023-07-20T00:00:28;17.10;99.90
11840;DHT22;5979;50.800;4.904;2023-07-20T00:03:13;17.10;99.90
11840;DHT22;5979;50.800;4.904;2023-07-20T00:05:43;17.10;99.90
11840;DHT22;5979;50.800;4.904;2023-07-20T00:08:09;17.10;99.90
11840;DHT22;5979;50.800;4.904;2023-07-20T00:10:34;17.00;99.90
11840;DHT22;5979;50.800;4.904;2023-07-20T00:13:00;17.00;99.90
11840;DHT22;5979;50.800;4.904;2023-07-20T00:15:26;17.00;99.90
11840;DHT22;5979;50.800;4.904;2023-07-20T00:17:51;17.00;99.90
11840;DHT22;5979;50.800;4.904;2023-07-20T00:20:17;17.00;99.90
11840;DHT22;5979;50.800;4.904;2023-07-20T00:22:43;17.00;99.90
11840;DHT22;5979;50.800;4.904;2023-07-20T00:25:09;17.00;99.90
11840;DHT22;5979;50.800;4.904;2023-07-20T00:27:37;17.10;99.90
11840;DHT22;5979;50.800;4.904;2023-07-20T00:30:04;17.10;99.90
11840;DHT22;5979;50.800;4.904;2023-07-20T00:32:30;17.10;99.90
11840;DHT22;5979;50.800;4.904;2023-07-20T00:34:56;17.20;99.90
11840;DHT22;5979;50.800;4.904;2023-07-20T00:37:21;17.20;99.90
11840;DHT22;5979;50.800;4.904;2023-07-20T00:39:47;17.20;99.90
11840;DHT22;5979;50.800;4.904;2023-07-20T00:42:13;17.20;99.90
11840;DHT22;5979;50.800;4.904;2023-07-20T00:44:38;17.20;99.90
11840;DHT22;5979;50.800;4.904;2023-07-20T00:47:05;17.20;99.90
11840;DHT22;5979;50.800;4.904;2023-07-20T00:49:31;17.30;99.90
11840;DHT22;5979;50.800;4.904;2023-07-20T00:51:58;17.30;99.90
11840;DHT22;5979;50.800;4.904;2023-07-20T00:54:25;17.20;99.90
11840;DHT22;5979;50.800;4.904;2023-07-20T00:56:53;17.20;99.90
11840;DHT22;5979;50.800;4.904;2023-07-20T00:59:18;17.20;99.90
11840;DHT22;5979;50.800;4.904;2023-07-20T01:01:44;17.20;99.90
11840;DHT22;5979;50.800;4.904;2023-07-20T01:04:10;17.20;99.90
11840;DHT22;5979;50.800;4.904;2023-07-20T01:06:41;17.20;99.90
11840;DHT22;5979;50.800;4.904;2023-07-20T01:09:19;17.20;99.90
11840;DHT22;5979;50.800;4.904;2023-07-20T01:14:20;17.10;99.90
11840;DHT22;5979;50.800;4.904;2023-07-20T01:16:46;17.10;99.90
11840;DHT22;5979;50.800;4.904;2023-07-20T01:19:15;17.20;99.90
11840;DHT22;5979;50.800;4.904;2023-07-20T01:21:53;17.10;99.90
11840;DHT22;5979;50.800;4.904;2023-07-20T01:24:52;17.20;99.90
11840;DHT22;5979;50.800;4.904;2023-07-20T01:30:46;17.30;99.90
11840;DHT22;5979;50.800;4.904;2023-07-20T01:33:17;17.30;99.90
11840;DHT22;5979;50.800;4.904;2023-07-20T01:35:45;17.20;99.90
11840;DHT22;5979;50.800;4.904;2023-07-20T01:38:12;17.20;99.90
11840;DHT22;5979;50.800;4.904;2023-07-20T01:40:40;17.30;99.90
11840;DHT22;5979;50.800;4.904;2023-07-20T01:43:06;17.30;99.90
11840;DHT22;5979;50.800;4.904;2023-07-20T01:45:32;17.30;99.90
11840;DHT22;5979;50.800;4.904;2023-07-20T01:47:57;17.30;99.90
11840;DHT22;5979;50.800;4.904;2023-07-20T01:50:23;17.20;99.90
11840;DHT22;5979;50.800;4.904;2023-07-20T01:52:49;17.20;99.90
11840;DHT22;5979;50.800;4.904;2023-07-20T01:55:15;17.20;99.90
11840;DHT22;5979;50.800;4.904;2023-07-20T01:57:41;17.20;99.90
11840;DHT22;5979;50.800;4.904;2023-07-20T02:00:07;17.20;99.90
11840;DHT22;5979;50.800;4.904;2023-07-20T02:02:34;17.10;99.90
11840;DHT22;5979;50.800;4.904;2023-07-20T02:05:00;17.10;99.90
11840;DHT22;5979;50.800;4.904;2023-07-20T02:07:25;17.10;99.90
11840;DHT22;5979;50.800;4.904;2023-07-20T02:09:51;17.10;99.90
11840;DHT22;5979;50.800;4.904;2023-07-20T02:12:17;17.00;99.90
11840;DHT22;5979;50.800;4.904;2023-07-20T02:14:43;17.10;99.90
11840;DHT22;5979;50.800;4.904;2023-07-20T02:17:10;17.00;99.90
11840;DHT22;5979;50.800;4.904;2023-07-20T02:19:37;17.00;99.90
11840;DHT22;5979;50.800;4.904;2023-07-20T02:22:05;17.00;99.90
11840;DHT22;5979;50.800;4.904;2023-07-20T02:24:32;16.90;99.90
11840;DHT22;5979;50.800;4.904;2023-07-20T02:26:58;16.90;99.90
11840;DHT22;5979;50.800;4.904;2023-07-20T02:29:24;16.80;99.90
11840;DHT22;5979;50.800;4.904;2023-07-20T02:31:49;16.70;99.90
11840;DHT22;5979;50.800;4.904;2023-07-20T02:34:15;16.70;99.90
11840;DHT22;5979;50.800;4.904;2023-07-20T02:36:41;16.70;99.90
11840;DHT22;5979;50.800;4.904;2023-07-20T02:39:08;16.70;99.90
11840;DHT22;5979;50.800;4.904;2023-07-20T02:41:34;16.60;99.90
11840;DHT22;5979;50.800;4.904;2023-07-20T02:44:19;16.60;99.90
11840;DHT22;5979;50.800;4.904;2023-07-20T02:46:44;16.60;99.90
11840;DHT22;5979;50.800;4.904;2023-07-20T02:49:10;16.60;99.90
11840;DHT22;5979;50.800;4.904;2023-07-20T02:51:36;16.60;99.90
11840;DHT22;5979;50.800;4.904;2023-07-20T02:54:01;16.50;99.90
11840;DHT22;5979;50.800;4.904;2023-07-20T02:56:29;16.60;99.90
11840;DHT22;5979;50.800;4.904;2023-07-20T02:58:54;16.60;99.90
11840;DHT22;5979;50.800;4.904;2023-07-20T03:01:20;16.50;99.90
11840;DHT22;5979;50.800;4.904;2023-07-20T03:04:05;16.50;99.90
11840;DHT22;5979;50.800;4.904;2023-07-20T03:06:30;16.60;99.90
11840;DHT22;5979;50.800;4.904;2023-07-20T03:08:57;16.50;99.90
11840;DHT22;5979;50.800;4.904;2023-07-20T03:11:23;16.50;99.90
11840;DHT22;5979;50.800;4.904;2023-07-20T03:13:49;16.60;99.90
11840;DHT22;5979;50.800;4.904;2023-07-20T03:16:18;16.60;99.90
11840;DHT22;5979;50.800;4.904;2023-07-20T03:18:44;16.60;99.90
11840;DHT22;5979;50.800;4.904;2023-07-20T03:21:10;16.70;99.90
11840;DHT22;5979;50.800;4.904;2023-07-20T03:23:41;16.70;99.90
11840;DHT22;5979;50.800;4.904;2023-07-20T03:26:07;16.70;99.90
11840;DHT22;5979;50.800;4.904;2023-07-20T03:28:37;16.70;99.90
11840;DHT22;5979;50.800;4.904;2023-07-20T03:31:03;16.80;99.90
11840;DHT22;5979;50.800;4.904;2023-07-20T03:33:30;16.70;99.90
11840;DHT22;5979;50.800;4.904;2023-07-20T03:35:56;16.70;99.90
11840;DHT22;5979;50.800;4.904;2023-07-20T03:38:23;16.70;99.90
11840;DHT22;5979;50.800;4.904;2023-07-20T03:40:56;16.70;99.90
11840;DHT22;5979;50.800;4.904;2023-07-20T03:43:23;16.60;99.90
11840;DHT22;5979;50.800;4.904;2023-07-20T03:45:50;16.60;99.90
11840;DHT22;5979;50.800;4.904;2023-07-20T03:48:18;16.60;99.90
11840;DHT22;5979;50.800;4.904;2023-07-20T03:50:46;16.60;99.90
11840;DHT22;5979;50.800;4.904;2023-07-20T03:53:12;16.60;99.90
11840;DHT22;5979;50.800;4.904;2023-07-20T03:55:38;16.60;99.90
11840;DHT22;5979;50.800;4.904;2023-07-20T03:58:06;16.60;99.90
11840;DHT22;5979;50.800;4.904;2023-07-20T04:00:33;16.70;99.90
11840;DHT22;5979;50.800;4.904;2023-07-20T04:02:59;16.60;99.90
11840;DHT22;5979;50.800;4.904;2023-07-20T04:05:25;16.70;99.90
11840;DHT22;5979;50.800;4.904;2023-07-20T04:07:51;16.70;99.90
11840;DHT22;5979;50.800;4.904;2023-07-20T04:10:17;16.80;99.90
11840;DHT22;5979;50.800;4.904;2023-07-20T04:12:44;16.90;99.90
11840;DHT22;5979;50.800;4.904;2023-07-20T04:15:11;16.90;99.90
11840;DHT22;5979;50.800;4.904;2023-07-20T04:17:36;17.00;99.90
11840;DHT22;5979;50.800;4.904;2023-07-20T04:20:02;17.10;99.90
11840;DHT22;5979;50.800;4.904;2023-07-20T04:22:28;17.00;99.90
11840;DHT22;5979;50.800;4.904;2023-07-20T04:24:54;17.10;99.90
11840;DHT22;5979;50.800;4.904;2023-07-20T04:27:20;17.10;99.90
11840;DHT22;5979;50.800;4.904;2023-07-20T04:29:46;17.10;99.90
11840;DHT22;5979;50.800;4.904;2023-07-20T04:32:11;17.10;99.90
11840;DHT22;5979;50.800;4.904;2023-07-20T04:34:37;17.10;99.90
11840;DHT22;5979;50.800;4.904;2023-07-20T04:37:04;17.10;99.90
11840;DHT22;5979;50.800;4.904;2023-07-20T04:39:30;17.10;99.90
11840;DHT22;5979;50.800;4.904;2023-07-20T04:41:56;17.10;99.90
11840;DHT22;5979;50.800;4.904;2023-07-20T04:44:22;17.20;99.90
11840;DHT22;5979;50.800;4.904;2023-07-20T04:46:47;17.30;99.90
11840;DHT22;5979;50.800;4.904;2023-07-20T04:49:13;17.40;99.90
11840;DHT22;5979;50.800;4.904;2023-07-20T04:51:39;17.50;99.90
11840;DHT22;5979;50.800;4.904;2023-07-20T04:54:05;17.50;99.90
11840;DHT22;5979;50.800;4.904;2023-07-20T04:56:30;17.60;99.90
11840;DHT22;5979;50.800;4.904;2023-07-20T04:58:56;17.70;99.90
11840;DHT22;5979;50.800;4.904;2023-07-20T05:01:23;17.70;99.90
11840;DHT22;5979;50.800;4.904;2023-07-20T05:03:48;17.80;99.90
11840;DHT22;5979;50.800;4.904;2023-07-20T05:06:15;17.90;99.90
11840;DHT22;5979;50.800;4.904;2023-07-20T05:08:41;18.00;99.90
11840;DHT22;5979;50.800;4.904;2023-07-20T05:11:06;18.00;99.90
11840;DHT22;5979;50.800;4.904;2023-07-20T05:13:33;18.00;99.90
11840;DHT22;5979;50.800;4.904;2023-07-20T05:15:58;18.00;99.90
11840;DHT22;5979;50.800;4.904;2023-07-20T05:18:24;17.90;99.90
11840;DHT22;5979;50.800;4.904;2023-07-20T05:20:50;17.90;99.90
11840;DHT22;5979;50.800;4.904;2023-07-20T05:23:19;17.80;99.90
11840;DHT22;5979;50.800;4.904;2023-07-20T05:25:57;17.80;99.90
11840;DHT22;5979;50.800;4.904;2023-07-20T05:28:24;17.80;99.90
11840;DHT22;5979;50.800;4.904;2023-07-20T05:30:50;17.80;99.90
11840;DHT22;5979;50.800;4.904;2023-07-20T05:33:20;17.90;99.90
11840;DHT22;5979;50.800;4.904;2023-07-20T05:35:46;17.90;99.90
11840;DHT22;5979;50.800;4.904;2023-07-20T05:38:12;18.00;99.90
11840;DHT22;5979;50.800;4.904;2023-07-20T05:40:39;18.10;99.90
11840;DHT22;5979;50.800;4.904;2023-07-20T05:43:05;18.00;99.90
11840;DHT22;5979;50.800;4.904;2023-07-20T05:45:32;18.10;99.90
11840;DHT22;5979;50.800;4.904;2023-07-20T05:47:58;18.10;99.90
11840;DHT22;5979;50.800;4.904;2023-07-20T05:50:23;18.20;99.90
11840;DHT22;5979;50.800;4.904;2023-07-20T05:52:52;18.20;99.90
11840;DHT22;5979;50.800;4.904;2023-07-20T05:55:21;18.30;99.90
11840;DHT22;5979;50.800;4.904;2023-07-20T05:57:46;18.20;99.90
11840;DHT22;5979;50.800;4.904;2023-07-20T06:00:14;18.20;99.90
11840;DHT22;5979;50.800;4.904;2023-07-20T06:02:40;18.20;99.90
11840;DHT22;5979;50.800;4.904;2023-07-20T06:05:06;18.20;99.90
11840;DHT22;5979;50.800;4.904;2023-07-20T06:07:37;18.20;99.90
11840;DHT22;5979;50.800;4.904;2023-07-20T06:10:03;18.20;99.90
11840;DHT22;5979;50.800;4.904;2023-07-20T06:12:28;18.20;99.90
11840;DHT22;5979;50.800;4.904;2023-07-20T06:14:54;18.30;99.90
11840;DHT22;5979;50.800;4.904;2023-07-20T06:17:20;18.30;99.90
11840;DHT22;5979;50.800;4.904;2023-07-20T06:19:46;18.40;99.90
11840;DHT22;5979;50.800;4.904;2023-07-20T06:22:12;18.40;99.90
11840;DHT22;5979;50.800;4.904;2023-07-20T06:24:37;18.40;99.90
11840;DHT22;5979;50.800;4.904;2023-07-20T06:27:03;18.40;99.90
11840;DHT22;5979;50.800;4.904;2023-07-20T06:29:31;18.40;99.90
11840;DHT22;5979;50.800;4.904;2023-07-20T06:31:57;18.50;99.90
11840;DHT22;5979;50.800;4.904;2023-07-20T06:34:22;18.50;99.90
11840;DHT22;5979;50.800;4.904;2023-07-20T06:36:48;18.60;99.90
11840;DHT22;5979;50.800;4.904;2023-07-20T06:39:13;18.70;99.90
11840;DHT22;5979;50.800;4.904;2023-07-20T06:41:39;18.80;99.90
11840;DHT22;5979;50.800;4.904;2023-07-20T06:44:05;18.80;99.90
11840;DHT22;5979;50.800;4.904;2023-07-20T06:46:31;18.80;99.90
11840;DHT22;5979;50.800;4.904;2023-07-20T06:48:57;18.80;99.90
11840;DHT22;5979;50.800;4.904;2023-07-20T06:51:22;18.90;99.90
11840;DHT22;5979;50.800;4.904;2023-07-20T06:53:48;18.90;99.90
11840;DHT22;5979;50.800;4.904;2023-07-20T06:56:14;19.00;99.90
11840;DHT22;5979;50.800;4.904;2023-07-20T06:58:39;19.10;99.90
11840;DHT22;5979;50.800;4.904;2023-07-20T07:01:06;19.30;99.90
11840;DHT22;5979;50.800;4.904;2023-07-20T07:03:32;19.40;99.90
11840;DHT22;5979;50.800;4.904;2023-07-20T07:05:58;19.40;99.90
11840;DHT22;5979;50.800;4.904;2023-07-20T07:08:24;19.50;99.90
11840;DHT22;5979;50.800;4.904;2023-07-20T07:10:50;19.50;99.90
11840;DHT22;5979;50.800;4.904;2023-07-20T07:13:16;19.50;99.90
11840;DHT22;5979;50.800;4.904;2023-07-20T07:15:42;19.40;99.90
11840;DHT22;5979;50.800;4.904;2023-07-20T07:18:08;19.50;99.90
11840;DHT22;5979;50.800;4.904;2023-07-20T07:20:34;19.60;99.90
11840;DHT22;5979;50.800;4.904;2023-07-20T07:22:59;19.60;99.90
11840;DHT22;5979;50.800;4.904;2023-07-20T07:25:26;19.70;99.90
11840;DHT22;5979;50.800;4.904;2023-07-20T07:27:53;19.70;99.90
11840;DHT22;5979;50.800;4.904;2023-07-20T07:30:19;19.80;99.90
11840;DHT22;5979;50.800;4.904;2023-07-20T07:32:45;19.80;99.90
11840;DHT22;5979;50.800;4.904;2023-07-20T07:35:11;20.00;99.90
11840;DHT22;5979;50.800;4.904;2023-07-20T07:37:37;20.00;99.90
11840;DHT22;5979;50.800;4.904;2023-07-20T07:40:03;20.00;99.90
11840;DHT22;5979;50.800;4.904;2023-07-20T07:42:29;20.10;99.90
11840;DHT22;5979;50.800;4.904;2023-07-20T07:44:55;20.20;99.90
11840;DHT22;5979;50.800;4.904;2023-07-20T07:47:21;20.30;99.90
11840;DHT22;5979;50.800;4.904;2023-07-20T07:49:46;20.40;99.90
11840;DHT22;5979;50.800;4.904;2023-07-20T07:52:12;20.50;99.90
11840;DHT22;5979;50.800;4.904;2023-07-20T07:54:39;20.70;99.90
11840;DHT22;5979;50.800;4.904;2023-07-20T07:57:05;20.80;99.90
11840;DHT22;5979;50.800;4.904;2023-07-20T07:59:31;20.80;99.90
11840;DHT22;5979;50.800;4.904;2023-07-20T08:02:02;20.90;99.90
11840;DHT22;5979;50.800;4.904;2023-07-20T08:04:28;21.00;99.90
11840;DHT22;5979;50.800;4.904;2023-07-20T08:06:54;21.00;99.90
11840;DHT22;5979;50.800;4.904;2023-07-20T08:09:19;21.10;99.90
11840;DHT22;5979;50.800;4.904;2023-07-20T08:11:45;21.30;99.90
11840;DHT22;5979;50.800;4.904;2023-07-20T08:14:11;21.50;99.90
11840;DHT22;5979;50.800;4.904;2023-07-20T08:16:37;21.70;99.90
11840;DHT22;5979;50.800;4.904;2023-07-20T08:19:03;21.80;99.90
11840;DHT22;5979;50.800;4.904;2023-07-20T08:21:28;22.00;99.90
11840;DHT22;5979;50.800;4.904;2023-07-20T08:23:54;22.10;99.90
11840;DHT22;5979;50.800;4.904;2023-07-20T08:26:20;22.20;99.90
11840;DHT22;5979;50.800;4.904;2023-07-20T08:28:47;22.20;99.90
11840;DHT22;5979;50.800;4.904;2023-07-20T08:31:14;22.20;99.90
11840;DHT22;5979;50.800;4.904;2023-07-20T08:33:39;22.10;99.90
11840;DHT22;5979;50.800;4.904;2023-07-20T08:36:05;22.00;99.90
11840;DHT22;5979;50.800;4.904;2023-07-20T08:38:31;22.10;99.90
11840;DHT22;5979;50.800;4.904;2023-07-20T08:40:57;22.30;99.90
11840;DHT22;5979;50.800;4.904;2023-07-20T08:43:25;22.50;99.90
11840;DHT22;5979;50.800;4.904;2023-07-20T08:45:52;22.60;99.90
11840;DHT22;5979;50.800;4.904;2023-07-20T08:48:20;22.80;99.90
11840;DHT22;5979;50.800;4.904;2023-07-20T08:50:47;23.00;99.90
11840;DHT22;5979;50.800;4.904;2023-07-20T08:53:14;23.20;99.90
11840;DHT22;5979;50.800;4.904;2023-07-20T08:55:41;23.20;99.90
11840;DHT22;5979;50.800;4.904;2023-07-20T08:58:09;23.10;99.90
11840;DHT22;5979;50.800;4.904;2023-07-20T09:00:37;23.30;99.90
11840;DHT22;5979;50.800;4.904;2023-07-20T09:03:03;23.30;99.90
11840;DHT22;5979;50.800;4.904;2023-07-20T09:05:29;23.40;99.90
11840;DHT22;5979;50.800;4.904;2023-07-20T09:07:55;23.40;99.90
11840;DHT22;5979;50.800;4.904;2023-07-20T09:10:22;23.50;99.90
11840;DHT22;5979;50.800;4.904;2023-07-20T09:12:48;23.70;99.90
11840;DHT22;5979;50.800;4.904;2023-07-20T09:15:14;24.10;99.90
11840;DHT22;5979;50.800;4.904;2023-07-20T09:17:49;24.20;99.90
11840;DHT22;5979;50.800;4.904;2023-07-20T09:20:16;24.00;99.90
11840;DHT22;5979;50.800;4.904;2023-07-20T09:22:43;23.80;99.90
11840;DHT22;5979;50.800;4.904;2023-07-20T09:27:41;24.00;99.90
11840;DHT22;5979;50.800;4.904;2023-07-20T09:30:08;24.00;99.90
11840;DHT22;5979;50.800;4.904;2023-07-20T09:35:19;24.30;99.90
11840;DHT22;5979;50.800;4.904;2023-07-20T09:37:53;24.30;99.90
11840;DHT22;5979;50.800;4.904;2023-07-20T09:40:20;24.40;99.90
11840;DHT22;5979;50.800;4.904;2023-07-20T09:42:47;24.30;99.90
11840;DHT22;5979;50.800;4.904;2023-07-20T09:45:13;24.50;99.90
11840;DHT22;5979;50.800;4.904;2023-07-20T09:47:39;24.40;99.90
11840;DHT22;5979;50.800;4.904;2023-07-20T09:50:06;24.30;99.90
11840;DHT22;5979;50.800;4.904;2023-07-20T09:52:41;24.40;99.90
11840;DHT22;5979;50.800;4.904;2023-07-20T09:55:09;24.00;99.90
11840;DHT22;5979;50.800;4.904;2023-07-20T09:57:38;23.80;99.90
11840;DHT22;5979;50.800;4.904;2023-07-20T10:00:06;23.50;99.90
11840;DHT22;5979;50.800;4.904;2023-07-20T10:02:44;23.70;99.90
11840;DHT22;5979;50.800;4.904;2023-07-20T10:05:14;23.60;99.90
11840;DHT22;5979;50.800;4.904;2023-07-20T10:07:46;23.70;99.90
11840;DHT22;5979;50.800;4.904;2023-07-20T10:10:14;23.70;99.90
11840;DHT22;5979;50.800;4.904;2023-07-20T10:12:41;23.50;99.90
11840;DHT22;5979;50.800;4.904;2023-07-20T10:15:23;23.60;99.90
11840;DHT22;5979;50.800;4.904;2023-07-20T10:18:21;23.80;99.90
11840;DHT22;5979;50.800;4.904;2023-07-20T10:20:49;24.10;99.90
11840;DHT22;5979;50.800;4.904;2023-07-20T10:23:17;24.50;99.90
11840;DHT22;5979;50.800;4.904;2023-07-20T10:25:43;24.90;99.90
11840;DHT22;5979;50.800;4.904;2023-07-20T10:28:10;25.30;99.90
11840;DHT22;5979;50.800;4.904;2023-07-20T10:30:37;25.80;99.90
11840;DHT22;5979;50.800;4.904;2023-07-20T10:33:04;26.30;99.90
11840;DHT22;5979;50.800;4.904;2023-07-20T10:35:30;26.40;99.90
11840;DHT22;5979;50.800;4.904;2023-07-20T10:38:03;26.00;99.90
11840;DHT22;5979;50.800;4.904;2023-07-20T10:40:38;25.90;99.90
11840;DHT22;5979;50.800;4.904;2023-07-20T10:43:08;25.50;99.90
11840;DHT22;5979;50.800;4.904;2023-07-20T10:45:47;24.90;99.90
11840;DHT22;5979;50.800;4.904;2023-07-20T10:48:24;24.80;99.90
11840;DHT22;5979;50.800;4.904;2023-07-20T10:51:12;24.50;99.90
11840;DHT22;5979;50.800;4.904;2023-07-20T10:53:41;24.30;99.90
11840;DHT22;5979;50.800;4.904;2023-07-20T10:56:14;24.30;99.90
11840;DHT22;5979;50.800;4.904;2023-07-20T10:58:41;24.40;99.90
11840;DHT22;5979;50.800;4.904;2023-07-20T11:01:08;24.40;99.90
11840;DHT22;5979;50.800;4.904;2023-07-20T11:03:37;24.50;99.90
11840;DHT22;5979;50.800;4.904;2023-07-20T11:08:55;25.20;99.90
11840;DHT22;5979;50.800;4.904;2023-07-20T11:11:26;25.50;99.90
11840;DHT22;5979;50.800;4.904;2023-07-20T11:14:02;25.50;99.90
11840;DHT22;5979;50.800;4.904;2023-07-20T11:16:36;25.80;99.90
11840;DHT22;5979;50.800;4.904;2023-07-20T11:19:03;25.50;99.90
11840;DHT22;5979;50.800;4.904;2023-07-20T11:21:36;25.40;99.90
11840;DHT22;5979;50.800;4.904;2023-07-20T11:24:06;25.70;99.90
11840;DHT22;5979;50.800;4.904;2023-07-20T11:26:47;25.90;99.90
11840;DHT22;5979;50.800;4.904;2023-07-20T11:29:13;26.00;99.90
11840;DHT22;5979;50.800;4.904;2023-07-20T11:31:41;26.00;99.90
11840;DHT22;5979;50.800;4.904;2023-07-20T11:34:17;25.80;99.90
11840;DHT22;5979;50.800;4.904;2023-07-20T11:36:45;25.80;99.90
11840;DHT22;5979;50.800;4.904;2023-07-20T11:39:12;25.70;99.90
11840;DHT22;5979;50.800;4.904;2023-07-20T11:41:39;25.60;99.90
11840;DHT22;5979;50.800;4.904;2023-07-20T11:44:09;25.40;99.90
11840;DHT22;5979;50.800;4.904;2023-07-20T11:46:42;25.40;99.90
11840;DHT22;5979;50.800;4.904;2023-07-20T11:49:08;25.50;99.90
11840;DHT22;5979;50.800;4.904;2023-07-20T11:51:36;25.30;99.90
11840;DHT22;5979;50.800;4.904;2023-07-20T11:54:03;25.40;99.90
11840;DHT22;5979;50.800;4.904;2023-07-20T11:56:29;25.50;99.90
11840;DHT22;5979;50.800;4.904;2023-07-20T11:58:57;25.70;99.90
11840;DHT22;5979;50.800;4.904;2023-07-20T12:01:28;26.00;99.90
11840;DHT22;5979;50.800;4.904;2023-07-20T12:03:59;26.20;99.90
11840;DHT22;5979;50.800;4.904;2023-07-20T12:06:27;26.30;99.90
11840;DHT22;5979;50.800;4.904;2023-07-20T12:09:01;26.40;99.90
11840;DHT22;5979;50.800;4.904;2023-07-20T12:11:39;26.60;99.90
11840;DHT22;5979;50.800;4.904;2023-07-20T12:14:09;26.80;99.90
11840;DHT22;5979;50.800;4.904;2023-07-20T12:16:36;26.80;99.90
11840;DHT22;5979;50.800;4.904;2023-07-20T12:19:05;26.90;99.90
11840;DHT22;5979;50.800;4.904;2023-07-20T12:21:33;27.10;99.90
11840;DHT22;5979;50.800;4.904;2023-07-20T12:23:59;26.90;99.90
11840;DHT22;5979;50.800;4.904;2023-07-20T12:26:26;26.60;99.90
11840;DHT22;5979;50.800;4.904;2023-07-20T12:28:52;26.20;99.90
11840;DHT22;5979;50.800;4.904;2023-07-20T12:31:18;26.10;99.90
11840;DHT22;5979;50.800;4.904;2023-07-20T12:33:44;26.00;99.90
11840;DHT22;5979;50.800;4.904;2023-07-20T12:36:10;26.00;99.90
11840;DHT22;5979;50.800;4.904;2023-07-20T12:38:36;26.00;99.90
11840;DHT22;5979;50.800;4.904;2023-07-20T12:41:02;26.00;99.90
11840;DHT22;5979;50.800;4.904;2023-07-20T12:43:28;26.10;99.90
11840;DHT22;5979;50.800;4.904;2023-07-20T12:45:55;26.30;99.90
11840;DHT22;5979;50.800;4.904;2023-07-20T12:48:21;26.40;99.90
11840;DHT22;5979;50.800;4.904;2023-07-20T12:50:47;26.50;99.90
11840;DHT22;5979;50.800;4.904;2023-07-20T12:53:13;26.30;99.90
11840;DHT22;5979;50.800;4.904;2023-07-20T12:55:39;26.30;99.90
11840;DHT22;5979;50.800;4.904;2023-07-20T12:58:06;26.40;99.90
11840;DHT22;5979;50.800;4.904;2023-07-20T13:00:32;25.90;99.90
11840;DHT22;5979;50.800;4.904;2023-07-20T13:02:57;25.90;99.90
11840;DHT22;5979;50.800;4.904;2023-07-20T13:05:23;25.90;99.90
11840;DHT22;5979;50.800;4.904;2023-07-20T13:07:50;25.50;99.90
11840;DHT22;5979;50.800;4.904;2023-07-20T13:10:15;25.30;99.90
11840;DHT22;5979;50.800;4.904;2023-07-20T13:12:41;25.30;99.90
11840;DHT22;5979;50.800;4.904;2023-07-20T13:15:09;25.40;99.90
11840;DHT22;5979;50.800;4.904;2023-07-20T13:17:36;25.40;99.90
11840;DHT22;5979;50.800;4.904;2023-07-20T13:20:03;25.60;99.90
11840;DHT22;5979;50.800;4.904;2023-07-20T13:22:32;25.50;99.90
11840;DHT22;5979;50.800;4.904;2023-07-20T13:24:57;25.50;99.90
11840;DHT22;5979;50.800;4.904;2023-07-20T13:27:23;25.50;99.90
11840;DHT22;5979;50.800;4.904;2023-07-20T13:29:51;25.50;99.90
11840;DHT22;5979;50.800;4.904;2023-07-20T13:32:17;25.40;99.90
11840;DHT22;5979;50.800;4.904;2023-07-20T13:34:46;25.10;99.90
11840;DHT22;5979;50.800;4.904;2023-07-20T13:37:12;25.00;99.90
11840;DHT22;5979;50.800;4.904;2023-07-20T13:39:38;25.00;99.90
11840;DHT22;5979;50.800;4.904;2023-07-20T13:42:07;25.10;99.90
11840;DHT22;5979;50.800;4.904;2023-07-20T13:44:35;25.30;99.90
11840;DHT22;5979;50.800;4.904;2023-07-20T13:47:01;25.20;99.90
11840;DHT22;5979;50.800;4.904;2023-07-20T13:49:28;25.40;99.90
11840;DHT22;5979;50.800;4.904;2023-07-20T13:51:55;25.40;99.90
11840;DHT22;5979;50.800;4.904;2023-07-20T13:54:23;25.40;99.90
11840;DHT22;5979;50.800;4.904;2023-07-20T13:56:48;25.30;99.90
11840;DHT22;5979;50.800;4.904;2023-07-20T13:59:14;25.20;99.90
11840;DHT22;5979;50.800;4.904;2023-07-20T14:01:40;25.30;99.90
11840;DHT22;5979;50.800;4.904;2023-07-20T14:04:06;25.20;99.90
11840;DHT22;5979;50.800;4.904;2023-07-20T14:06:33;25.30;99.90
11840;DHT22;5979;50.800;4.904;2023-07-20T14:08:59;25.20;99.90
11840;DHT22;5979;50.800;4.904;2023-07-20T14:11:25;25.20;99.90
11840;DHT22;5979;50.800;4.904;2023-07-20T14:13:51;25.20;99.90
11840;DHT22;5979;50.800;4.904;2023-07-20T14:16:21;25.40;99.90
11840;DHT22;5979;50.800;4.904;2023-07-20T14:18:47;25.40;99.90
11840;DHT22;5979;50.800;4.904;2023-07-20T14:21:15;25.50;99.90
11840;DHT22;5979;50.800;4.904;2023-07-20T14:23:49;25.40;99.90
11840;DHT22;5979;50.800;4.904;2023-07-20T14:26:15;25.30;99.90
11840;DHT22;5979;50.800;4.904;2023-07-20T14:28:41;25.20;99.90
11840;DHT22;5979;50.800;4.904;2023-07-20T14:31:07;25.10;99.90
11840;DHT22;5979;50.800;4.904;2023-07-20T14:33:33;25.00;99.90
11840;DHT22;5979;50.800;4.904;2023-07-20T14:35:59;24.90;99.90
11840;DHT22;5979;50.800;4.904;2023-07-20T14:38:27;24.90;99.90
11840;DHT22;5979;50.800;4.904;2023-07-20T14:40:53;24.80;99.90
11840;DHT22;5979;50.800;4.904;2023-07-20T14:43:19;24.50;99.90
11840;DHT22;5979;50.800;4.904;2023-07-20T14:45:45;24.60;99.90
11840;DHT22;5979;50.800;4.904;2023-07-20T14:48:11;24.60;99.90
11840;DHT22;5979;50.800;4.904;2023-07-20T14:50:37;24.50;99.90
11840;DHT22;5979;50.800;4.904;2023-07-20T14:53:02;24.50;99.90
11840;DHT22;5979;50.800;4.904;2023-07-20T14:55:28;24.40;99.90
11840;DHT22;5979;50.800;4.904;2023-07-20T14:57:54;24.10;99.90
11840;DHT22;5979;50.800;4.904;2023-07-20T15:00:20;24.10;99.90
11840;DHT22;5979;50.800;4.904;2023-07-20T15:02:46;24.00;99.90
11840;DHT22;5979;50.800;4.904;2023-07-20T15:05:12;24.00;99.90
11840;DHT22;5979;50.800;4.904;2023-07-20T15:07:42;24.00;99.90
11840;DHT22;5979;50.800;4.904;2023-07-20T15:10:08;23.90;99.90
11840;DHT22;5979;50.800;4.904;2023-07-20T15:12:35;23.90;99.90
11840;DHT22;5979;50.800;4.904;2023-07-20T15:15:08;23.90;99.90
11840;DHT22;5979;50.800;4.904;2023-07-20T15:17:35;23.90;99.90
11840;DHT22;5979;50.800;4.904;2023-07-20T15:20:02;24.00;99.90
11840;DHT22;5979;50.800;4.904;2023-07-20T15:22:33;24.00;99.90
11840;DHT22;5979;50.800;4.904;2023-07-20T15:25:00;24.00;99.90
11840;DHT22;5979;50.800;4.904;2023-07-20T15:27:26;24.00;99.90
11840;DHT22;5979;50.800;4.904;2023-07-20T15:29:52;24.10;99.90
11840;DHT22;5979;50.800;4.904;2023-07-20T15:32:20;24.20;99.90
11840;DHT22;5979;50.800;4.904;2023-07-20T15:34:46;24.30;99.90
11840;DHT22;5979;50.800;4.904;2023-07-20T15:37:12;24.30;99.90
11840;DHT22;5979;50.800;4.904;2023-07-20T15:39:39;24.30;99.90
11840;DHT22;5979;50.800;4.904;2023-07-20T15:42:05;24.30;99.90
11840;DHT22;5979;50.800;4.904;2023-07-20T15:44:31;24.40;99.90
11840;DHT22;5979;50.800;4.904;2023-07-20T15:46:57;24.20;99.90
11840;DHT22;5979;50.800;4.904;2023-07-20T15:49:23;24.10;99.90
11840;DHT22;5979;50.800;4.904;2023-07-20T15:51:53;24.10;99.90
11840;DHT22;5979;50.800;4.904;2023-07-20T15:54:19;24.10;99.90
11840;DHT22;5979;50.800;4.904;2023-07-20T15:56:45;24.10;99.90
11840;DHT22;5979;50.800;4.904;2023-07-20T15:59:12;23.90;99.90